Sao Pedro do Sul, Brazil
Current Conditions -  °F | °C
As of 4:00 PM on Tuesday 21 Oct 2014 (Local Time) from SBSM Reporting Station
Clear Clear  
Wind Chill: 73°   Ceiling: Unl
Heat Index: 73°   Visibility: 6mi
Dew Point: 57°   Wind: 9mph
Humidity: 57%   Direction: 110°ESE
Pressure: 30.12"   Gusts: NA
Location:  29.62°S, 54.18°W
Report Text: SBSM 211800Z 11008KT 070V150 CAVOK 23/14 Q1020
Loading
Personal Weather Stations






























Interactive Weather Map
Tropical Storm Tracking
New forecast layout! Learn more

10-Day Weather Forecast

Advertisements
Track Severe Weather on mobile